This is the latest recevied weather packets stored in our database for station/object JE3XST-13. If no packets are shown the sender has not sent any weather packets the latest 10 day(s).
| Time | Temp. | Humidity | Pressure | Rain* | Wind** | Luminosity | Snow |
|---|---|---|---|---|---|---|---|
| 1787668015 | 27.78° C | 70% | 1011.5 hPa | 0 mm | - | - | - |
| 1787666215 | 27.78° C | 69% | 1011.3 hPa | 0 mm | - | - | - |
| 1787664414 | 27.78° C | 68% | 1011.2 hPa | 0 mm | - | - | - |
| 1787662614 | 28.33° C | 65% | 1011.2 hPa | 0 mm | - | - | - |
| 1787660812 | 28.33° C | 64% | 1011.2 hPa | 0 mm | - | - | - |
| 1787659011 | 28.89° C | 62% | 1011 hPa | 0 mm | - | - | - |
| 1787657211 | 29.44° C | 61% | 1010.8 hPa | 0 mm | - | - | - |
| 1787655409 | 30.56° C | 58% | 1010.5 hPa | 0 mm | - | - | - |
| 1787653669 | 31.11° C | 58% | 1010.1 hPa | 0 mm | - | - | - |
| 1787651870 | 32.78° C | 54% | 1009.8 hPa | 0 mm | - | - | - |
| 1787650070 | 34.44° C | 46% | 1009.4 hPa | 0 mm | - | - | - |
| 1787648268 | 35° C | 44% | 1009.2 hPa | 0 mm | - | - | - |
| 1787646469 | 35.56° C | 42% | 1009.2 hPa | 0 mm | - | - | - |
| 1787644668 | 36.67° C | 40% | 1009.4 hPa | 0 mm | - | - | - |
| 1787642869 | 36.67° C | 41% | 1009.5 hPa | 0 mm | - | - | - |
| 1787641069 | 36.67° C | 44% | 1009.4 hPa | 0 mm | - | - | - |
| 1787639267 | 36.67° C | 45% | 1009.6 hPa | 0 mm | - | - | - |
| 1787637467 | 37.22° C | 42% | 1009.9 hPa | 0 mm | - | - | - |
| 1787635667 | 37.22° C | 43% | 1010.1 hPa | 0 mm | - | - | - |
| 1787633866 | 36.67° C | 47% | 1010.5 hPa | 0 mm | - | - | - |
| 1787632063 | 36.11° C | 50% | 1010.9 hPa | 0 mm | - | - | - |
| 1787630263 | 35.56° C | 54% | 1011.1 hPa | 0 mm | - | - | - |
| 1787628461 | 35.56° C | 54% | 1011.6 hPa | 0 mm | - | - | - |
| 1787626660 | 34.44° C | 55% | 1011.9 hPa | 0 mm | - | - | - |
| 1787624859 | 34.44° C | 56% | 1012.3 hPa | 0 mm | - | - | - |
* Rain latest hour (hover to see other rain measurements)
** Current wind speed in m/s (hover to see current wind gust speed)